Time;durP1;ratioP1;P1;durP2;ratioP2;P2;SDS_P1;SDS_P2;PMS_P1;PMS_P2;Temp;Humidity;BMP_temperature;BMP_pressure;BME280_temperature;BME280_humidity;BME280_pressure;Samples;Min_cycle;Max_cycle;Signal;HPM_P1;HPM_P2
2020/12/13 00:02:27;;;;;;;78.22;34.90;;;;;;;3.57;78.70;100557.66;10126603;28;20054;-70
2020/12/13 00:07:23;;;;;;;70.25;33.70;;;;;;;3.56;78.83;100558.75;10132791;28;20058;-69
2020/12/13 00:12:19;;;;;;;69.85;30.92;;;;;;;3.65;78.39;100561.72;10138882;28;20055;-68
2020/12/13 00:17:16;;;;;;;71.53;31.02;;;;;;;3.51;79.59;100556.88;10130082;28;20562;-69
2020/12/13 00:22:13;;;;;;;72.75;30.80;;;;;;;3.43;79.69;100564.72;10117657;28;20438;-69
2020/12/13 00:27:09;;;;;;;65.70;31.98;;;;;;;3.54;79.11;100564.41;10120521;28;20050;-69
2020/12/13 00:32:06;;;;;;;64.97;30.00;;;;;;;3.50;80.19;100566.03;10122073;28;20055;-70
2020/12/13 00:37:02;;;;;;;65.93;30.73;;;;;;;3.61;79.52;100571.44;10135511;28;20050;-70
2020/12/13 00:41:58;;;;;;;64.88;29.70;;;;;;;3.62;79.02;100571.19;10133237;28;20050;-69
2020/12/13 00:46:54;;;;;;;65.57;28.73;;;;;;;3.28;80.55;100587.19;10130328;28;20059;-69
2020/12/13 00:51:50;;;;;;;68.45;28.67;;;;;;;3.49;79.80;100591.47;10119574;28;20583;-70
2020/12/13 00:56:46;;;;;;;74.20;31.08;;;;;;;3.40;80.15;100609.31;10127644;28;20046;-69
2020/12/13 01:01:42;;;;;;;62.97;27.63;;;;;;;3.42;79.63;100612.56;10140717;28;20054;-69
2020/12/13 01:06:38;;;;;;;69.53;31.55;;;;;;;3.51;79.88;100621.75;10134316;28;20054;-69
2020/12/13 01:11:34;;;;;;;66.75;31.05;;;;;;;3.51;79.04;100621.75;10129661;28;20058;-69
2020/12/13 01:16:31;;;;;;;66.25;30.13;;;;;;;3.47;79.39;100617.97;10125231;28;20073;-71
2020/12/13 01:21:31;;;;;;;74.18;30.88;;;;;;;3.19;80.68;100607.72;10128127;28;20116;-70
2020/12/13 01:26:27;;;;;;;71.47;32.05;;;;;;;3.46;79.58;100619.06;10139874;28;20081;-70
2020/12/13 01:31:23;;;;;;;73.40;32.10;;;;;;;3.54;79.62;100620.38;10116390;28;20058;-70
2020/12/13 01:36:23;;;;;;;71.45;30.35;;;;;;;3.50;79.23;100619.31;10122913;28;20466;-70
2020/12/13 01:41:21;;;;;;;66.30;29.80;;;;;;;3.56;78.90;100624.44;10136761;28;20097;-69
2020/12/13 01:46:17;;;;;;;64.68;29.90;;;;;;;3.52;78.94;100622.56;10134691;28;20058;-69
2020/12/13 01:52:38;;;;;;;70.50;30.90;;;;;;;3.37;80.10;100628.81;10136871;28;20510;-70
2020/12/13 01:56:33;;;;;;;72.07;27.65;;;;;;;3.51;79.44;100621.75;10110903;28;20140;-70
2020/12/13 02:01:37;;;;;;;66.60;26.20;;;;;;;3.57;79.01;100626.06;10139364;28;20634;-70
2020/12/13 02:06:35;;;;;;;67.50;29.05;;;;;;;3.65;79.29;100629.31;10132849;28;20050;-70
2020/12/13 02:11:31;;;;;;;60.67;28.27;;;;;;;3.55;79.67;100638.22;10113096;28;20070;-69
2020/12/13 02:16:27;;;;;;;62.45;27.88;;;;;;;3.63;78.38;100634.16;10124274;28;20558;-68
2020/12/13 02:21:24;;;;;;;67.47;28.98;;;;;;;3.65;78.77;100643.63;10137947;28;20650;-69
2020/12/13 02:26:21;;;;;;;64.75;26.48;;;;;;;3.62;79.08;100646.06;10132258;28;20093;-69
2020/12/13 02:31:17;;;;;;;73.43;29.83;;;;;;;3.36;79.21;100643.38;10119182;28;20061;-68
2020/12/13 02:36:13;;;;;;;63.58;29.27;;;;;;;3.54;78.65;100642.81;10114679;28;20086;-68
2020/12/13 02:41:11;;;;;;;66.63;27.95;;;;;;;3.34;79.52;100649.06;10111611;28;20434;-69
2020/12/13 02:46:07;;;;;;;64.50;27.05;;;;;;;3.40;79.65;100655.28;10117309;28;20146;-69
2020/12/13 02:51:03;;;;;;;64.30;29.20;;;;;;;3.58;79.08;100659.31;10109451;28;20054;-69
2020/12/13 02:55:59;;;;;;;61.38;26.45;;;;;;;3.55;79.16;100655.28;10112386;28;20058;-69
2020/12/13 03:00:56;;;;;;;61.28;28.27;;;;;;;3.66;78.38;100661.47;10135238;28;20063;-68
2020/12/13 03:05:52;;;;;;;66.05;26.45;;;;;;;3.62;79.16;100670.38;10131248;28;20424;-68
2020/12/13 03:10:48;;;;;;;60.75;26.55;;;;;;;3.63;78.52;100690.94;10133653;28;20054;-67
2020/12/13 03:15:44;;;;;;;64.60;26.67;;;;;;;3.63;78.24;100685.53;10129978;28;20104;-68
2020/12/13 03:20:40;;;;;;;65.97;27.65;;;;;;;3.48;78.45;100692.59;10120411;28;20085;-68
2020/12/13 03:25:36;;;;;;;68.78;27.60;;;;;;;3.56;78.71;100689.31;10131335;28;20054;-68
2020/12/13 03:30:32;;;;;;;61.92;29.10;;;;;;;3.58;78.77;100686.34;10119855;28;20065;-68
2020/12/13 03:35:28;;;;;;;68.55;28.00;;;;;;;3.67;78.46;100689.34;10129505;28;20082;-67
2020/12/13 03:40:24;;;;;;;62.10;25.85;;;;;;;3.64;77.99;100684.44;10141599;28;20440;-68
2020/12/13 03:45:20;;;;;;;63.67;26.58;;;;;;;3.50;79.23;100690.41;10147072;28;20057;-68
2020/12/13 03:50:19;;;;;;;68.78;28.52;;;;;;;3.45;79.16;100697.72;10144667;28;20050;-69
2020/12/13 03:55:15;;;;;;;64.40;28.83;;;;;;;3.55;78.56;100697.69;10138483;28;20141;-69
2020/12/13 04:00:11;;;;;;;66.72;26.40;;;;;;;3.43;79.17;100711.47;10128778;28;20050;-69
2020/12/13 04:05:07;;;;;;;69.78;30.08;;;;;;;3.25;79.50;100714.72;10139215;28;20052;-67
2020/12/13 04:10:03;;;;;;;67.93;30.73;;;;;;;3.25;79.70;100714.72;10140134;28;20057;-67
2020/12/13 04:14:59;;;;;;;65.93;29.77;;;;;;;3.28;80.12;100715.00;10143438;28;20062;-69
2020/12/13 04:19:56;;;;;;;64.70;30.13;;;;;;;3.17;79.19;100730.38;10135489;28;20518;-69
2020/12/13 04:24:52;;;;;;;66.00;27.77;;;;;;;3.19;79.15;100732.03;10137156;28;20065;-69
2020/12/13 04:29:48;;;;;;;71.00;29.65;;;;;;;3.23;79.54;100739.31;10125245;28;20057;-69
2020/12/13 04:34:44;;;;;;;62.15;26.88;;;;;;;3.40;79.41;100739.06;10127292;28;20051;-69
2020/12/13 04:39:40;;;;;;;65.93;28.00;;;;;;;3.30;79.38;100739.88;10105048;28;20507;-69
2020/12/13 04:44:37;;;;;;;64.57;26.52;;;;;;;3.40;79.13;100736.34;10134055;28;20050;-69
2020/12/13 04:49:35;;;;;;;63.38;28.30;;;;;;;3.40;79.44;100747.16;10130762;28;20086;-69
2020/12/13 04:54:31;;;;;;;69.13;28.58;;;;;;;3.37;79.08;100747.72;10120130;28;20062;-69
2020/12/13 04:59:27;;;;;;;61.92;28.67;;;;;;;3.36;79.46;100762.28;10120219;28;20081;-69
2020/12/13 05:04:23;;;;;;;64.03;29.40;;;;;;;3.33;79.77;100765.53;10139247;28;20058;-69
2020/12/13 05:09:20;;;;;;;72.60;30.13;;;;;;;3.17;80.14;100773.63;10135635;28;20450;-69
2020/12/13 05:14:16;;;;;;;63.63;27.55;;;;;;;3.34;80.20;100775.25;10123740;28;20054;-69
2020/12/13 05:19:13;;;;;;;66.25;29.25;;;;;;;3.19;80.96;100775.25;10125178;28;20145;-68
2020/12/13 05:24:10;;;;;;;63.88;27.73;;;;;;;3.41;80.12;100777.72;10117131;28;20161;-69
2020/12/13 05:29:06;;;;;;;71.32;29.17;;;;;;;3.40;80.06;100779.59;10120892;28;20816;-68
2020/12/13 05:34:05;;;;;;;66.85;28.95;;;;;;;3.32;80.04;100780.16;10129871;28;20074;-68
2020/12/13 05:39:03;;;;;;;65.05;29.88;;;;;;;3.35;79.58;100785.00;10129117;28;20082;-69
2020/12/13 05:44:31;;;;;;;70.05;29.67;;;;;;;3.33;79.98;100796.06;10131140;28;20076;-69
2020/12/13 05:54:42;;;;;;;65.40;30.20;;;;;;;3.20;81.01;100798.47;10118293;28;20065;-69
2020/12/13 05:59:38;;;;;;;75.32;29.17;;;;;;;3.00;81.97;100789.25;10128632;28;20454;-68
2020/12/13 06:04:41;;;;;;;72.25;30.98;;;;;;;3.02;81.63;100789.78;10118442;28;20070;-69
2020/12/13 06:09:39;;;;;;;80.47;31.13;;;;;;;3.11;81.66;100780.09;10124594;28;20171;-69
2020/12/13 06:14:39;;;;;;;83.05;32.28;;;;;;;3.00;81.96;100800.06;10139155;28;20055;-68
2020/12/13 06:19:41;;;;;;;84.15;33.25;;;;;;;3.03;82.70;100804.91;10112233;28;20102;-68
2020/12/13 06:24:38;;;;;;;81.78;30.83;;;;;;;3.19;81.77;100802.28;10122282;28;20061;-68
2020/12/13 06:29:35;;;;;;;69.15;30.75;;;;;;;3.35;81.82;100812.84;10122446;28;20063;-69
2020/12/13 06:34:31;;;;;;;79.75;31.60;;;;;;;3.42;81.03;100823.41;10125370;28;20058;-69
2020/12/13 06:39:27;;;;;;;76.90;31.10;;;;;;;3.47;81.14;100818.00;10120215;28;20054;-69
2020/12/13 06:44:28;;;;;;;81.25;33.05;;;;;;;3.38;81.04;100817.69;10134144;28;20054;-68
2020/12/13 06:49:24;;;;;;;81.30;32.88;;;;;;;3.30;81.29;100818.25;10122897;28;20141;-69
2020/12/13 06:54:21;;;;;;;82.25;34.97;;;;;;;3.32;81.51;100823.41;10101835;28;20058;-69
2020/12/13 06:59:21;;;;;;;84.50;31.50;;;;;;;3.11;82.29;100817.91;10134825;28;20055;-69
2020/12/13 07:04:20;;;;;;;88.20;31.95;;;;;;;3.17;82.30;100824.94;10136748;28;20062;-69
2020/12/13 07:09:18;;;;;;;97.05;34.28;;;;;;;3.27;82.10;100831.47;10131210;28;20101;-69
2020/12/13 07:14:17;;;;;;;92.90;34.30;;;;;;;3.23;82.21;100827.69;10136642;28;20086;-69
2020/12/13 07:19:15;;;;;;;93.10;34.70;;;;;;;3.11;82.58;100838.69;10135727;28;20050;-68
2020/12/13 07:24:12;;;;;;;87.95;33.38;;;;;;;3.21;82.92;100848.75;10113492;28;20423;-69
2020/12/13 07:29:15;;;;;;;95.00;32.42;;;;;;;3.17;83.04;100849.25;10134444;28;20058;-69
2020/12/13 07:34:12;;;;;;;92.03;33.33;;;;;;;3.25;82.53;100856.06;10131930;28;20441;-69
2020/12/13 07:39:11;;;;;;;88.72;32.78;;;;;;;3.36;82.73;100862.28;10131782;28;20073;-68
2020/12/13 07:44:12;;;;;;;91.55;33.20;;;;;;;3.17;82.08;100870.88;10130416;28;20054;-69
2020/12/13 07:49:17;;;;;;;91.40;34.10;;;;;;;3.29;82.19;100872.56;10136671;28;20533;-69
2020/12/13 07:54:21;;;;;;;83.55;34.78;;;;;;;3.21;83.18;100870.38;10138566;28;20081;-68
2020/12/13 07:59:22;;;;;;;92.90;34.28;;;;;;;2.95;84.33;100873.78;10142394;28;20051;-68
2020/12/13 08:04:34;;;;;;;86.20;33.63;;;;;;;3.14;83.01;100871.41;10133104;28;20146;-68
2020/12/13 08:09:30;;;;;;;88.15;33.13;;;;;;;3.25;83.72;100879.56;10137701;28;20058;-68
2020/12/13 08:14:26;;;;;;;91.28;34.42;;;;;;;3.34;83.34;100883.38;10133872;28;20129;-69
2020/12/13 08:19:54;;;;;;;97.10;37.05;;;;;;;3.41;82.93;100899.34;10126261;28;20081;-67
2020/12/13 08:25:06;;;;;;;88.70;33.10;;;;;;;3.36;81.86;100900.13;10107782;28;20083;-67
2020/12/13 08:30:05;;;;;;;84.40;33.47;;;;;;;3.45;81.87;100909.34;10142223;28;20117;-68
2020/12/13 08:35:11;;;;;;;85.53;33.95;;;;;;;3.40;81.95;100917.47;10132318;28;20054;-69
2020/12/13 08:40:08;;;;;;;92.75;33.90;;;;;;;3.24;83.65;100923.88;10113615;28;20054;-70
2020/12/13 08:45:04;;;;;;;93.05;33.95;;;;;;;3.38;82.81;100919.59;10140483;28;20050;-66
2020/12/13 08:50:05;;;;;;;82.25;32.70;;;;;;;3.50;82.87;100933.69;10139603;28;20407;-70
2020/12/13 08:55:06;;;;;;;81.95;31.90;;;;;;;3.44;83.23;100929.38;10116123;28;20543;-71
2020/12/13 09:00:09;;;;;;;90.13;33.58;;;;;;;3.42;82.23;100936.94;10137163;28;20046;-71
2020/12/13 09:05:12;;;;;;;76.60;34.40;;;;;;;3.58;82.07;100941.31;10134555;28;20109;-69
2020/12/13 09:10:12;;;;;;;75.82;33.13;;;;;;;3.67;82.13;100943.50;10143839;28;20137;-69
2020/12/13 09:15:19;;;;;;;78.47;33.60;;;;;;;3.73;82.04;100947.84;10139372;28;20116;-71
2020/12/13 09:20:23;;;;;;;83.78;33.78;;;;;;;3.80;81.68;100953.81;10144270;28;20057;-69
2020/12/13 09:25:44;;;;;;;74.80;30.55;;;;;;;3.76;82.30;100952.72;10135755;28;20054;-70
2020/12/13 09:30:40;;;;;;;;;;;;;;;3.75;81.59;100964.63;10137120;28;22404;-72
2020/12/13 09:35:36;;;;;;;73.10;30.25;;;;;;;3.74;81.88;100966.50;10119897;28;20013;-71
2020/12/13 09:40:34;;;;;;;81.63;31.55;;;;;;;3.76;82.15;100974.34;10139658;28;20073;-70
2020/12/13 09:45:31;;;;;;;76.93;32.88;;;;;;;3.63;82.80;100970.25;10128264;28;20050;-71
2020/12/13 09:50:28;;;;;;;76.03;30.98;;;;;;;3.84;81.57;100971.13;10130993;28;20054;-71
2020/12/13 09:55:24;;;;;;;74.88;34.13;;;;;;;3.95;81.80;100978.19;10132968;28;20104;-69
2020/12/13 10:00:20;;;;;;;74.03;30.55;;;;;;;3.97;80.84;100978.75;10122875;28;20467;-70
2020/12/13 10:05:25;;;;;;;76.32;32.63;;;;;;;3.94;80.60;100981.16;10129509;28;20054;-70
2020/12/13 10:10:21;;;;;;;72.68;31.25;;;;;;;3.91;81.24;100979.81;10129204;28;20058;-70
2020/12/13 10:15:17;;;;;;;72.93;31.13;;;;;;;3.97;81.45;100981.47;10132344;28;20054;-70
2020/12/13 10:20:13;;;;;;;80.05;33.10;;;;;;;3.90;81.47;100980.91;10131881;28;20077;-70
2020/12/13 10:25:09;;;;;;;77.32;34.00;;;;;;;3.97;81.33;100981.47;10141442;28;20054;-70
2020/12/13 10:30:06;;;;;;;77.95;32.40;;;;;;;4.02;80.51;100982.56;10138135;28;20506;-70
2020/12/13 10:35:02;;;;;;;74.13;31.50;;;;;;;4.02;80.79;100979.84;10131324;28;20061;-71
2020/12/13 10:39:58;;;;;;;93.07;35.53;;;;;;;3.88;81.04;100980.34;10123331;28;20046;-70
2020/12/13 10:44:54;;;;;;;84.18;32.08;;;;;;;3.96;81.06;100984.41;10130997;28;20506;-68
2020/12/13 10:49:50;;;;;;;87.65;34.08;;;;;;;3.90;81.01;100985.47;10140204;28;20050;-68
2020/12/13 10:54:46;;;;;;;89.15;35.13;;;;;;;4.00;81.25;100980.91;10130288;28;20065;-68
2020/12/13 10:59:42;;;;;;;86.45;32.17;;;;;;;4.00;82.29;100988.22;10131891;28;20062;-69
2020/12/13 11:04:38;;;;;;;90.18;33.88;;;;;;;4.02;82.54;100979.84;10139791;28;20062;-69
2020/12/13 11:09:35;;;;;;;100.80;37.30;;;;;;;3.93;81.94;100977.66;10136433;28;20102;-70
2020/12/13 11:14:32;;;;;;;95.03;35.15;;;;;;;4.12;81.41;100960.91;10140906;28;20133;-69
2020/12/13 11:19:28;;;;;;;93.78;35.00;;;;;;;4.24;80.93;100969.59;10137288;28;20050;-70
2020/12/13 11:24:24;;;;;;;86.65;36.10;;;;;;;4.22;81.16;100967.16;10128451;28;20061;-69
2020/12/13 11:29:21;;;;;;;83.47;34.97;;;;;;;4.33;80.77;100975.28;10139783;28;20051;-69
2020/12/13 11:34:17;;;;;;;89.10;34.45;;;;;;;4.26;81.40;100977.44;10134062;28;20081;-67
2020/12/13 11:39:13;;;;;;;83.30;35.13;;;;;;;4.33;80.88;100978.00;10135634;28;20057;-68
2020/12/13 11:44:09;;;;;;;90.15;36.03;;;;;;;4.24;81.25;100977.69;10136964;28;20571;-68
2020/12/13 11:49:05;;;;;;;89.65;34.90;;;;;;;4.31;82.12;100970.13;10136384;28;20065;-69
2020/12/13 11:54:01;;;;;;;87.95;36.30;;;;;;;4.51;81.56;100976.66;10121633;28;20050;-66
2020/12/13 11:58:57;;;;;;;86.68;34.28;;;;;;;4.56;80.77;100990.19;10112510;28;20050;-70
2020/12/13 12:03:53;;;;;;;90.13;35.65;;;;;;;4.61;80.57;100980.16;10138291;28;20069;-71
2020/12/13 12:08:50;;;;;;;91.82;36.97;;;;;;;4.57;80.39;100972.84;10135460;28;20042;-71
2020/12/13 12:13:46;;;;;;;86.32;33.83;;;;;;;4.43;80.67;100980.69;10137826;28;20090;-71
2020/12/13 12:18:42;;;;;;;93.78;37.40;;;;;;;4.32;80.45;100971.78;10138936;28;20573;-70
2020/12/13 12:23:39;;;;;;;87.40;35.10;;;;;;;4.36;80.55;100978.28;10133673;28;20054;-71
2020/12/13 12:28:35;;;;;;;90.88;33.47;;;;;;;4.29;80.92;100993.94;10116586;28;20055;-69
2020/12/13 12:33:31;;;;;;;88.47;35.95;;;;;;;4.42;80.22;100988.00;10116761;28;20057;-73
2020/12/13 12:38:31;;;;;;;91.38;35.88;;;;;;;4.40;80.25;100992.88;10139486;28;20141;-73
2020/12/13 12:43:27;;;;;;;91.05;35.53;;;;;;;4.38;80.99;100999.66;10139168;28;20089;-75
2020/12/13 12:48:24;;;;;;;89.15;34.10;;;;;;;4.38;80.66;101002.34;10143200;28;20057;-73
2020/12/13 12:53:21;;;;;;;92.70;36.35;;;;;;;4.43;80.66;100999.66;10136391;28;20074;-71
2020/12/13 12:58:17;;;;;;;92.75;36.40;;;;;;;4.42;80.45;101009.66;10140783;28;20108;-71
2020/12/13 13:03:14;;;;;;;87.25;35.33;;;;;;;4.47;80.37;101010.75;10146726;28;20050;-71
2020/12/13 13:08:18;;;;;;;90.07;34.95;;;;;;;4.54;80.23;101016.72;10142083;28;20121;-70
2020/12/13 13:13:14;;;;;;;92.07;36.75;;;;;;;4.54;80.44;101012.13;10133564;28;20054;-69
2020/12/13 13:18:11;;;;;;;91.75;36.10;;;;;;;4.52;80.03;101021.59;10141504;28;20043;-74
2020/12/13 13:23:08;;;;;;;87.57;35.22;;;;;;;4.50;80.40;101032.69;10135052;28;20062;-70
2020/12/13 13:28:06;;;;;;;93.25;36.95;;;;;;;4.53;81.20;101036.78;10132589;28;20056;-70
2020/12/13 13:33:02;;;;;;;83.13;34.28;;;;;;;4.58;81.34;101034.88;10126022;28;20561;-70
2020/12/13 13:38:00;;;;;;;100.22;36.67;;;;;;;4.56;81.09;101053.28;10131426;28;20046;-71
2020/12/13 13:43:03;;;;;;;89.20;37.08;;;;;;;4.54;80.46;101049.22;10124987;28;20054;-70
2020/12/13 13:48:22;;;;;;;89.68;35.55;;;;;;;4.54;81.12;101054.63;10114689;28;20050;-70
2020/12/13 13:53:18;;;;;;;88.28;36.20;;;;;;;4.53;81.71;101075.50;10135184;28;20050;-71
2020/12/13 13:58:15;;;;;;;86.38;35.30;;;;;;;4.58;81.52;101071.97;10109453;28;20077;-70
2020/12/13 14:03:12;;;;;;;89.57;35.33;;;;;;;4.66;81.74;101057.09;10119636;28;20141;-71
2020/12/13 14:13:14;;;;;;;99.35;37.30;;;;;;;4.65;82.37;101067.09;10128066;28;20120;-71
2020/12/13 14:18:10;;;;;;;104.28;41.78;;;;;;;4.72;81.84;101056.81;10112030;28;20142;-70
2020/12/13 14:23:06;;;;;;;97.82;35.92;;;;;;;4.72;81.76;101067.66;10105813;28;20061;-71
2020/12/13 14:28:02;;;;;;;95.57;36.60;;;;;;;4.69;81.93;101068.19;10134873;28;20066;-71
2020/12/13 14:32:58;;;;;;;90.72;35.22;;;;;;;4.83;81.61;101080.13;10130524;28;20111;-70
2020/12/13 14:37:56;;;;;;;94.07;36.33;;;;;;;4.78;82.31;101082.84;10126924;28;20055;-70
2020/12/13 14:42:52;;;;;;;93.18;35.97;;;;;;;4.83;81.81;101085.53;10115788;28;20144;-70
2020/12/13 14:47:51;;;;;;;90.05;35.30;;;;;;;4.82;82.03;101089.31;10133531;28;20093;-70
2020/12/13 14:52:49;;;;;;;90.63;33.08;;;;;;;4.77;82.60;101092.03;10117733;28;20050;-70
2020/12/13 14:57:45;;;;;;;84.20;33.40;;;;;;;4.83;82.50;101085.53;10117358;28;20077;-70
2020/12/13 15:02:41;;;;;;;92.63;34.97;;;;;;;4.81;82.48;101093.13;10129681;28;20046;-70
2020/12/13 15:07:37;;;;;;;84.07;33.75;;;;;;;4.83;82.99;101093.69;10120517;28;20049;-70
2020/12/13 15:12:34;;;;;;;90.65;35.72;;;;;;;4.90;82.69;101100.69;10097539;28;20058;-70
2020/12/13 15:17:41;;;;;;;93.40;36.85;;;;;;;4.95;82.64;101098.03;10126087;28;20489;-70
2020/12/13 15:22:37;;;;;;;98.90;34.10;;;;;;;4.96;82.66;101094.22;10125005;28;20117;-70
2020/12/13 15:27:33;;;;;;;92.53;37.00;;;;;;;4.90;82.99;101092.56;10134558;28;20076;-70
2020/12/13 15:32:29;;;;;;;90.97;37.20;;;;;;;4.84;83.67;101097.19;10116450;28;20042;-70
2020/12/13 15:37:26;;;;;;;90.78;32.67;;;;;;;4.88;83.32;101103.69;10123940;28;20058;-70
2020/12/13 15:42:26;;;;;;;81.43;30.13;;;;;;;4.91;83.20;101118.59;10130907;28;20073;-69
2020/12/13 15:47:22;;;;;;;78.07;31.13;;;;;;;4.89;83.57;101112.63;10135335;28;20058;-69
2020/12/13 15:52:18;;;;;;;77.45;27.65;;;;;;;4.83;83.93;101112.63;10110714;28;20042;-70
2020/12/13 15:57:15;;;;;;;67.45;29.60;;;;;;;4.85;83.59;101110.47;10122739;28;20046;-70
2020/12/13 16:02:11;;;;;;;68.05;28.05;;;;;;;4.76;83.80;101117.50;10133246;28;20050;-70
2020/12/13 16:07:52;;;;;;;69.45;25.40;;;;;;;4.68;84.38;101109.91;10104386;28;20060;-70
2020/12/13 16:12:28;;;;;;;63.17;25.52;;;;;;;4.76;84.87;101117.50;10119019;28;20054;-70
2020/12/13 16:17:24;;;;;;;59.83;26.08;;;;;;;4.85;83.98;101110.47;10127080;28;20604;-70
2020/12/13 16:22:21;;;;;;;65.70;25.15;;;;;;;4.85;84.14;101115.91;10127606;28;20061;-70
2020/12/13 16:27:18;;;;;;;58.85;24.48;;;;;;;4.90;84.06;101111.53;10135483;28;20144;-70
2020/12/13 16:32:14;;;;;;;58.75;26.15;;;;;;;4.80;84.86;101107.78;10104835;28;20050;-70
2020/12/13 16:37:12;;;;;;;52.88;24.42;;;;;;;4.84;84.55;101118.88;10121679;28;20627;-70
2020/12/13 16:42:15;;;;;;;58.58;24.75;;;;;;;4.90;84.83;101116.97;10134700;28;20054;-70
2020/12/13 16:47:13;;;;;;;56.78;24.00;;;;;;;4.97;83.97;101123.75;10102823;28;20102;-70
2020/12/13 16:57:24;;;;;;;54.55;24.77;;;;;;;4.89;84.54;101118.06;10122906;28;20403;-71
2020/12/13 17:02:20;;;;;;;53.97;24.65;;;;;;;4.88;84.44;101113.72;10114711;28;20093;-71
2020/12/13 17:07:16;;;;;;;52.40;23.65;;;;;;;4.97;84.33;101118.34;10132707;28;20060;-72
2020/12/13 17:12:12;;;;;;;53.60;22.20;;;;;;;5.00;83.96;101111.56;10134636;28;20716;-73
2020/12/13 17:17:09;;;;;;;47.83;20.90;;;;;;;5.01;84.14;101110.47;10109947;28;20141;-72
2020/12/13 17:22:07;;;;;;;54.53;24.75;;;;;;;5.01;84.52;101118.59;10098013;28;20054;-71
2020/12/13 17:27:03;;;;;;;51.13;24.10;;;;;;;5.05;84.03;101119.69;10128433;28;20050;-73
2020/12/13 17:31:59;;;;;;;53.08;20.67;;;;;;;5.03;83.77;101116.44;10133549;28;20043;-70
2020/12/13 17:36:55;;;;;;;45.30;21.38;;;;;;;5.06;83.80;101127.56;10118740;28;20894;-71
2020/12/13 17:41:52;;;;;;;49.63;22.60;;;;;;;5.06;84.03;101122.13;10136553;28;21156;-72
2020/12/13 17:46:48;;;;;;;46.38;21.52;;;;;;;5.02;83.70;101120.25;10129283;28;20050;-69
2020/12/13 17:56:56;;;;;;;45.78;21.63;;;;;;;4.94;84.76;101112.63;10130013;28;21439;-71
2020/12/13 18:01:53;;;;;;;42.53;20.42;;;;;;;5.04;84.04;101124.31;10125878;28;20096;-71
2020/12/13 18:06:49;;;;;;;46.22;22.25;;;;;;;4.98;84.19;101113.72;10133185;28;20138;-71
2020/12/13 18:11:45;;;;;;;47.67;21.17;;;;;;;4.95;84.16;101115.09;10132185;28;20073;-69
2020/12/13 18:16:47;;;;;;;46.63;23.00;;;;;;;4.98;84.26;101130.00;10118131;28;20061;-69
2020/12/13 18:21:46;;;;;;;49.05;22.63;;;;;;;4.88;85.25;101119.16;10123662;28;20056;-71
2020/12/13 18:26:43;;;;;;;53.15;24.42;;;;;;;4.93;85.49;101121.88;10127732;28;20104;-70
2020/12/13 18:31:39;;;;;;;54.00;23.63;;;;;;;5.00;84.74;101123.22;10115309;28;20106;-67
2020/12/13 18:36:35;;;;;;;52.42;24.30;;;;;;;4.95;85.49;101130.53;10130455;28;20165;-68
2020/12/13 18:41:31;;;;;;;52.25;24.33;;;;;;;4.98;85.23;101130.00;10134588;28;20121;-69
2020/12/13 18:46:27;;;;;;;51.22;23.67;;;;;;;5.03;84.59;101127.28;10122424;28;20055;-69
2020/12/13 18:51:24;;;;;;;53.80;24.30;;;;;;;5.00;85.17;101116.97;10131250;28;20058;-70
2020/12/13 18:56:21;;;;;;;65.53;25.85;;;;;;;4.96;84.63;101132.16;10128172;28;20566;-69
2020/12/13 19:01:17;;;;;;;52.83;24.60;;;;;;;4.99;84.16;101137.84;10133949;28;20054;-68
2020/12/13 19:06:26;;;;;;;59.75;28.20;;;;;;;4.98;85.12;101135.41;10128109;28;20046;-70
2020/12/13 19:11:22;;;;;;;58.25;26.35;;;;;;;4.96;84.86;101134.84;10128326;28;20058;-70
2020/12/13 19:16:18;;;;;;;63.72;25.30;;;;;;;4.92;84.51;101136.47;10131876;28;20054;-70
2020/12/13 19:21:15;;;;;;;64.70;26.92;;;;;;;4.88;85.30;101135.41;10130024;28;20141;-70
2020/12/13 19:26:12;;;;;;;59.85;28.10;;;;;;;4.97;84.56;101134.59;10134371;28;20557;-69
2020/12/13 19:31:11;;;;;;;58.58;26.35;;;;;;;4.96;84.59;101135.66;10124744;28;20105;-70
2020/12/13 19:36:12;;;;;;;59.25;26.88;;;;;;;5.00;84.74;101133.25;10128676;28;20050;-70
2020/12/13 19:41:09;;;;;;;62.33;27.65;;;;;;;4.90;84.69;101133.22;10131967;28;20074;-70
2020/12/13 19:46:06;;;;;;;61.78;27.52;;;;;;;5.02;84.42;101131.88;10131368;28;20074;-70
2020/12/13 19:51:03;;;;;;;58.95;27.13;;;;;;;5.01;84.16;101141.13;10126394;28;20054;-69
2020/12/13 19:55:59;;;;;;;58.08;27.17;;;;;;;5.02;84.32;101131.09;10118142;28;20051;-69
2020/12/13 20:00:55;;;;;;;61.45;29.70;;;;;;;5.02;84.52;101125.66;10124904;28;20053;-69
2020/12/13 20:05:52;;;;;;;60.72;27.42;;;;;;;4.96;84.15;101115.88;10139595;28;20105;-69
2020/12/13 20:10:48;;;;;;;62.05;27.50;;;;;;;4.94;84.52;101131.59;10132257;28;20065;-71
2020/12/13 20:16:13;;;;;;;59.92;28.77;;;;;;;4.85;84.92;101137.56;10123829;28;20427;-69
2020/12/13 21:22:31;;;;;;;75.65;33.85;;;;;;;5.01;84.82;101151.97;10125999;28;20112;-68
2020/12/13 21:48:24;;;;;;;78.55;32.78;;;;;;;4.81;85.68;101157.34;10126896;28;20047;-70
2020/12/13 21:53:20;;;;;;;83.68;33.03;;;;;;;4.82;85.97;101143.50;10130372;28;20109;-70
2020/12/13 21:58:16;;;;;;;84.07;32.00;;;;;;;4.80;86.27;101140.28;10131905;28;20057;-72
2020/12/13 22:03:34;;;;;;;79.65;34.53;;;;;;;4.75;87.62;101142.97;10133484;28;20498;-71
2020/12/13 22:28:50;;;;;;;74.85;32.28;;;;;;;4.99;85.95;101137.03;10126430;28;20050;-70
2020/12/13 22:33:47;;;;;;;80.43;31.52;;;;;;;4.86;87.01;101149.22;10122012;28;20054;-71
2020/12/13 22:38:43;;;;;;;84.10;31.83;;;;;;;4.93;86.39;101148.97;10129539;28;20135;-69
2020/12/13 22:43:40;;;;;;;79.05;32.03;;;;;;;4.93;87.25;101144.34;10123420;28;20078;-70
2020/12/13 22:48:37;;;;;;;73.28;29.88;;;;;;;4.96;86.71;101151.13;10112175;28;20117;-71
2020/12/13 22:53:32;;;;;;;82.88;31.17;;;;;;;5.02;86.40;101155.47;10125234;28;20101;-70
2020/12/13 22:58:29;;;;;;;76.80;29.83;;;;;;;5.06;86.44;101153.84;10121180;28;20053;-72
2020/12/13 23:03:25;;;;;;;77.78;30.55;;;;;;;5.02;86.56;101141.91;10124567;28;20108;-68
2020/12/13 23:08:22;;;;;;;70.20;29.58;;;;;;;5.03;86.23;101138.91;10124531;28;20141;-70
2020/12/13 23:13:18;;;;;;;70.03;31.80;;;;;;;5.02;86.31;101134.59;10131041;28;20413;-69
2020/12/13 23:18:15;;;;;;;70.75;30.30;;;;;;;5.02;86.94;101125.66;10123471;28;20078;-70
2020/12/13 23:23:13;;;;;;;76.50;30.45;;;;;;;5.02;86.21;101112.09;10125104;28;20055;-70
2020/12/13 23:28:10;;;;;;;70.97;29.40;;;;;;;4.93;87.00;101105.59;10121953;28;20082;-70
2020/12/13 23:33:07;;;;;;;71.60;29.15;;;;;;;4.98;86.99;101086.63;10122513;28;20057;-69
2020/12/13 23:38:03;;;;;;;70.45;30.77;;;;;;;4.99;86.83;101082.81;10119943;28;20050;-70
2020/12/13 23:43:00;;;;;;;78.55;29.40;;;;;;;4.90;86.94;101062.78;10119095;28;20393;-70
2020/12/13 23:47:57;;;;;;;103.25;31.30;;;;;;;4.77;86.58;101058.72;10122994;28;20462;-71
2020/12/13 23:52:54;;;;;;;67.50;28.08;;;;;;;4.84;86.87;101062.78;10117337;28;20073;-71
2020/12/13 23:57:51;;;;;;;63.80;29.42;;;;;;;4.96;86.66;101050.84;10120301;28;20054;-70
